Washoe, Montana
Current Conditions -  °F | °C
As of 7:15 AM on Wednesday 26 Nov 2014 (Local Time) from KPOY Reporting Station
Light Snow Light Snow  
Wind Chill: 16°   Ceiling: 200
Heat Index: 23°   Visibility: 2mi
Dew Point: 23°   Wind: 6mph
Humidity: 100%   Direction: 120°ESE
Pressure: 30.11"   Gusts: NA
Location:  45.1631°N, 109.103°W
Report Text: KPOY 261415Z AUTO 12005KT 2SM -SN OVC002 M05/M05 A3011 RMK AO2
Loading
Personal Weather Stations






























Interactive Weather Map New forecast layout! Learn more

10-Day Weather Forecast

Advertisements
Track Severe Weather on mobile